Time;durP1;ratioP1;P1;durP2;ratioP2;P2;SDS_P1;SDS_P2;PMS_P1;PMS_P2;Temp;Humidity;BMP_temperature;BMP_pressure;BME280_temperature;BME280_humidity;BME280_pressure;Samples;Min_cycle;Max_cycle;Signal;HPM_P1;HPM_P2
2022/06/28 00:01:57;;;;;;;6.80;6.17;;;21.80;1.00;;;;;;6331672;28;20319;-56
2022/06/28 00:05:02;;;;;;;6.77;6.43;;;21.80;1.00;;;;;;6337721;27;20235;-55
2022/06/28 00:08:08;;;;;;;7.20;6.80;;;21.70;1.00;;;;;;6327275;28;20369;-55
2022/06/28 00:11:11;;;;;;;7.00;6.60;;;21.70;1.00;;;;;;6330292;28;20285;-56
2022/06/28 00:17:36;;;;;;;8.53;8.10;;;21.70;1.00;;;;;;6316811;28;20239;-54
2022/06/28 00:20:39;;;;;;;8.97;8.27;;;21.70;1.00;;;;;;6333252;28;20398;-55
2022/06/28 00:23:53;;;;;;;10.70;10.10;;;21.60;1.00;;;;;;6325318;28;20255;-57
2022/06/28 00:26:56;;;;;;;10.63;9.90;;;21.50;1.00;;;;;;6332803;28;20385;-55
2022/06/28 00:29:59;;;;;;;11.27;10.30;;;21.30;1.00;;;;;;6332173;28;20608;-56
2022/06/28 00:33:03;;;;;;;11.00;10.40;;;21.20;1.00;;;;;;6329552;27;20346;-55
2022/06/28 00:36:06;;;;;;;10.80;10.07;;;21.10;1.00;;;;;;6332795;27;20250;-54
2022/06/28 00:39:10;;;;;;;11.13;10.33;;;21.00;1.00;;;;;;6346481;27;20243;-54
2022/06/28 00:42:13;;;;;;;11.83;10.73;;;21.00;1.00;;;;;;6334798;27;20228;-55
2022/06/28 00:45:17;;;;;;;11.33;10.57;;;20.90;1.00;;;;;;6334394;28;20228;-55
2022/06/28 00:48:24;;;;;;;12.73;11.83;;;20.90;1.00;;;;;;6333361;28;20262;-54
2022/06/28 00:51:27;;;;;;;12.57;11.83;;;20.80;1.00;;;;;;6311071;28;20403;-55
2022/06/28 00:54:30;;;;;;;11.97;11.27;;;20.70;1.00;;;;;;6330162;28;20244;-55
2022/06/28 00:57:33;;;;;;;10.30;9.70;;;20.70;1.00;;;;;;6329651;28;20765;-51
2022/06/28 01:00:38;;;;;;;13.03;12.20;;;20.60;1.00;;;;;;6327902;28;20327;-55
2022/06/28 01:03:42;;;;;;;13.63;12.70;;;20.60;1.00;;;;;;6330868;28;20369;-55
2022/06/28 01:06:45;;;;;;;13.00;12.03;;;20.50;1.00;;;;;;6323105;28;20539;-54
2022/06/28 01:09:48;;;;;;;14.93;13.70;;;20.50;1.00;;;;;;6332034;28;20228;-56
2022/06/28 01:12:51;;;;;;;14.07;12.87;;;20.50;1.00;;;;;;6330286;28;20312;-55
2022/06/28 01:15:54;;;;;;;13.60;12.70;;;20.40;1.00;;;;;;6331314;28;20242;-56
2022/06/28 01:18:58;;;;;;;12.53;11.73;;;20.40;1.00;;;;;;6332118;28;20622;-56
2022/06/28 01:22:03;;;;;;;13.53;12.33;;;20.40;1.00;;;;;;6324738;28;20889;-56
2022/06/28 01:25:09;;;;;;;12.23;11.47;;;20.40;1.00;;;;;;6330910;28;20371;-56
2022/06/28 01:28:13;;;;;;;12.53;11.70;;;20.30;1.00;;;;;;6333194;28;20303;-55
2022/06/28 01:31:18;;;;;;;13.07;12.13;;;20.30;1.00;;;;;;6331643;28;20512;-56
2022/06/28 01:34:22;;;;;;;12.97;12.10;;;20.30;1.00;;;;;;6331434;28;20239;-56
2022/06/28 01:37:25;;;;;;;12.90;12.13;;;20.30;1.00;;;;;;6328955;28;20290;-55
2022/06/28 01:40:32;;;;;;;11.73;10.83;;;20.20;1.00;;;;;;6328046;28;20244;-55
2022/06/28 01:43:37;;;;;;;12.63;11.83;;;20.20;1.00;;;;;;6331508;28;20539;-55
2022/06/28 01:46:40;;;;;;;12.57;11.67;;;20.20;1.00;;;;;;6331752;28;20407;-55
2022/06/28 01:49:49;;;;;;;14.40;13.40;;;20.10;1.00;;;;;;6323452;28;20323;-54
2022/06/28 01:52:52;;;;;;;13.27;12.27;;;20.10;1.00;;;;;;6325374;28;20850;-55
2022/06/28 01:55:57;;;;;;;13.47;12.57;;;20.10;1.00;;;;;;6331278;28;20829;-55
2022/06/28 01:59:09;;;;;;;13.07;12.13;;;20.00;1.00;;;;;;6326096;28;20232;-55
2022/06/28 02:02:12;;;;;;;13.07;12.17;;;20.00;1.00;;;;;;6326795;28;20305;-55
2022/06/28 02:05:18;;;;;;;12.57;11.73;;;20.00;1.00;;;;;;6330649;28;20232;-56
2022/06/28 02:08:21;;;;;;;14.03;13.00;;;20.00;1.00;;;;;;6296135;28;20337;-55
2022/06/28 02:11:25;;;;;;;13.33;12.33;;;20.00;1.00;;;;;;6315889;28;20238;-55
2022/06/28 02:14:28;;;;;;;13.27;12.17;;;20.00;1.00;;;;;;6316134;27;20235;-56
2022/06/28 02:17:31;;;;;;;13.47;12.57;;;20.00;1.00;;;;;;6335119;28;20661;-55
2022/06/28 02:20:34;;;;;;;14.03;12.90;;;19.90;1.00;;;;;;6331736;28;20249;-54
2022/06/28 02:23:40;;;;;;;13.17;12.30;;;19.90;1.00;;;;;;6327525;28;20662;-57
2022/06/28 02:26:44;;;;;;;13.33;12.33;;;19.90;1.00;;;;;;6335765;28;20777;-56
2022/06/28 02:29:47;;;;;;;12.10;11.30;;;19.90;1.00;;;;;;6337201;28;20236;-57
2022/06/28 02:32:50;;;;;;;12.03;11.23;;;19.90;1.00;;;;;;6324162;28;20239;-56
2022/06/28 02:42:41;;;;;;;13.10;12.20;;;19.80;1.00;;;;;;6329454;28;20225;-55
2022/06/28 02:45:46;;;;;;;10.93;10.33;;;19.80;1.00;;;;;;6336489;28;20240;-54
2022/06/28 02:48:50;;;;;;;11.13;10.43;;;19.80;1.00;;;;;;6335418;28;20238;-53
2022/06/28 02:51:56;;;;;;;10.83;10.23;;;19.80;1.00;;;;;;6331660;28;20701;-55
2022/06/28 02:55:10;;;;;;;9.50;9.00;;;19.80;1.00;;;;;;6332860;28;20232;-56
2022/06/28 02:58:14;;;;;;;10.07;9.47;;;19.70;1.00;;;;;;6333693;28;20236;-56
2022/06/28 03:01:18;;;;;;;9.30;8.80;;;19.80;1.00;;;;;;6331212;28;20625;-55
2022/06/28 03:04:21;;;;;;;9.63;9.03;;;19.80;1.00;;;;;;6331024;28;20235;-56
2022/06/28 03:07:24;;;;;;;9.80;9.20;;;19.80;1.00;;;;;;6331432;28;20346;-55
2022/06/28 03:10:27;;;;;;;9.60;9.10;;;19.80;1.00;;;;;;6326147;28;20259;-56
2022/06/28 03:13:31;;;;;;;10.90;10.30;;;19.80;1.00;;;;;;6335571;28;20242;-56
2022/06/28 03:16:34;;;;;;;11.10;10.23;;;19.80;1.00;;;;;;6335234;28;20235;-56
2022/06/28 03:19:37;;;;;;;10.93;10.13;;;19.70;1.00;;;;;;6327054;28;20233;-56
2022/06/28 03:22:40;;;;;;;9.40;8.80;;;19.70;1.00;;;;;;6327065;28;20357;-56
2022/06/28 03:25:43;;;;;;;9.63;8.90;;;19.70;1.00;;;;;;6335441;28;20232;-56
2022/06/28 03:28:48;;;;;;;9.03;8.30;;;19.70;1.00;;;;;;6296402;28;20326;-54
2022/06/28 03:31:50;;;;;;;9.43;8.73;;;19.60;1.00;;;;;;6316945;28;20241;-56
2022/06/28 03:34:56;;;;;;;8.87;8.37;;;19.50;1.00;;;;;;6329743;27;20289;-56
2022/06/28 03:38:10;;;;;;;9.00;8.27;;;19.40;1.00;;;;;;6310655;28;20261;-56
2022/06/28 03:41:22;;;;;;;8.60;8.00;;;19.40;1.00;;;;;;6325930;28;20622;-56
2022/06/28 03:44:27;;;;;;;8.00;7.50;;;19.30;1.00;;;;;;6330142;28;20228;-55
2022/06/28 03:47:30;;;;;;;8.80;8.13;;;19.30;1.00;;;;;;6332219;28;20236;-52
2022/06/28 03:50:32;;;;;;;8.33;7.77;;;19.30;1.00;;;;;;6321618;28;20857;-55
2022/06/28 03:53:35;;;;;;;7.20;6.80;;;19.40;1.00;;;;;;6331046;28;20292;-55
2022/06/28 03:56:38;;;;;;;6.80;6.40;;;19.40;1.00;;;;;;6337789;27;20711;-55
2022/06/28 03:59:43;;;;;;;6.20;6.00;;;19.40;1.00;;;;;;6330118;27;20418;-55
2022/06/28 04:02:46;;;;;;;6.03;5.73;;;19.30;1.00;;;;;;6316362;28;20309;-55
2022/06/28 04:05:49;;;;;;;5.83;5.63;;;19.30;1.00;;;;;;6327369;28;20304;-54
2022/06/28 04:08:56;;;;;;;5.80;5.50;;;19.30;1.00;;;;;;6317319;28;20697;-56
2022/06/28 04:11:59;;;;;;;5.60;5.20;;;19.30;1.00;;;;;;6323107;28;20579;-55
2022/06/28 04:15:03;;;;;;;6.00;5.80;;;19.30;1.00;;;;;;6329079;27;20830;-57
2022/06/28 04:18:07;;;;;;;5.80;5.53;;;19.30;1.00;;;;;;6331119;27;20347;-54
2022/06/28 04:21:11;;;;;;;5.70;5.50;;;19.30;1.00;;;;;;6325663;27;20262;-55
2022/06/28 04:24:14;;;;;;;6.30;5.90;;;19.30;1.00;;;;;;6326216;28;20791;-54
2022/06/28 04:27:17;;;;;;;6.40;6.00;;;19.30;1.00;;;;;;6328872;27;20663;-56
2022/06/28 04:30:22;;;;;;;5.70;5.50;;;19.30;1.00;;;;;;6327776;28;20264;-56
2022/06/28 04:33:25;;;;;;;6.47;6.17;;;19.30;1.00;;;;;;6326857;27;20292;-57
2022/06/28 04:36:28;;;;;;;6.70;6.40;;;19.30;1.00;;;;;;6323534;28;20322;-56
2022/06/28 04:39:31;;;;;;;6.97;6.47;;;19.30;1.00;;;;;;6321487;28;20334;-56
2022/06/28 04:42:36;;;;;;;6.07;5.77;;;19.30;1.00;;;;;;6332211;27;20311;-56
2022/06/28 04:45:41;;;;;;;6.43;6.03;;;19.20;1.00;;;;;;6327158;28;20228;-56
2022/06/28 04:48:44;;;;;;;6.33;5.93;;;19.00;1.00;;;;;;6331586;27;20635;-55
2022/06/28 04:51:47;;;;;;;5.73;5.50;;;18.90;1.00;;;;;;6314174;28;20318;-55
2022/06/28 04:54:50;;;;;;;5.97;5.60;;;18.90;1.00;;;;;;6326875;28;20238;-56
2022/06/28 04:57:52;;;;;;;6.30;6.00;;;18.90;1.00;;;;;;6327886;28;20474;-55
2022/06/28 05:00:57;;;;;;;6.50;6.20;;;18.90;1.00;;;;;;6330045;28;20830;-55
2022/06/28 05:04:17;;;;;;;6.93;6.57;;;18.80;1.00;;;;;;6327290;28;20229;-57
2022/06/28 05:07:20;;;;;;;6.50;6.20;;;18.70;1.00;;;;;;6328777;28;20238;-55
2022/06/28 05:10:23;;;;;;;6.97;6.63;;;18.70;1.00;;;;;;6328534;28;20258;-55
2022/06/28 05:13:26;;;;;;;6.70;6.30;;;18.70;1.00;;;;;;6329123;28;20299;-57
2022/06/28 05:16:31;;;;;;;6.97;6.67;;;18.70;1.00;;;;;;6326681;28;20250;-55
2022/06/28 05:19:35;;;;;;;6.70;6.40;;;18.70;1.00;;;;;;6315470;28;20633;-54
2022/06/28 05:22:38;;;;;;;7.63;7.10;;;18.70;1.00;;;;;;6317538;28;20346;-55
2022/06/28 05:25:41;;;;;;;7.27;6.77;;;18.70;1.00;;;;;;6323619;28;20769;-56
2022/06/28 05:28:44;;;;;;;6.30;6.07;;;18.60;1.00;;;;;;6324402;27;20609;-56
2022/06/28 05:31:49;;;;;;;7.13;6.83;;;18.60;1.00;;;;;;6322585;27;20312;-56
2022/06/28 05:34:57;;;;;;;6.77;6.47;;;18.60;1.00;;;;;;6325619;28;20425;-55
2022/06/28 05:38:02;;;;;;;6.90;6.60;;;18.60;1.00;;;;;;6318540;28;20236;-54
2022/06/28 05:41:05;;;;;;;7.17;6.87;;;18.60;1.00;;;;;;6325024;28;20273;-55
2022/06/28 05:44:09;;;;;;;7.37;7.07;;;18.50;1.00;;;;;;6332541;27;20259;-55
2022/06/28 05:47:13;;;;;;;7.80;7.40;;;18.50;1.00;;;;;;6326484;28;20731;-56
2022/06/28 05:50:16;;;;;;;7.57;6.97;;;18.50;1.00;;;;;;6324269;27;20239;-55
2022/06/28 05:53:19;;;;;;;6.73;6.33;;;18.40;1.00;;;;;;6319746;28;20607;-56
2022/06/28 05:56:22;;;;;;;5.40;5.17;;;18.30;1.00;;;;;;6333746;28;20782;-56
2022/06/28 05:59:26;;;;;;;6.77;6.13;;;18.20;1.00;;;;;;6330798;28;20440;-56
2022/06/28 06:02:30;;;;;;;5.57;5.43;;;18.30;1.00;;;;;;6323307;28;20327;-56
2022/06/28 06:05:33;;;;;;;5.27;5.10;;;18.30;1.00;;;;;;6335828;28;20477;-57
2022/06/28 06:08:36;;;;;;;5.77;5.47;;;18.30;1.00;;;;;;6324161;28;20325;-55
2022/06/28 06:11:39;;;;;;;5.63;5.43;;;18.20;1.00;;;;;;6324305;28;20263;-57
2022/06/28 06:14:42;;;;;;;5.37;5.27;;;18.20;1.00;;;;;;6331030;28;20319;-56
2022/06/28 06:17:47;;;;;;;5.70;5.50;;;18.20;1.00;;;;;;6327490;28;20391;-54
2022/06/28 06:20:58;;;;;;;5.27;5.07;;;18.20;1.00;;;;;;6326392;28;20281;-57
2022/06/28 06:24:02;;;;;;;5.20;5.00;;;18.20;1.00;;;;;;6329024;28;20316;-56
2022/06/28 06:27:06;;;;;;;5.67;5.47;;;18.30;1.00;;;;;;6324582;28;20603;-55
2022/06/28 06:30:13;;;;;;;5.73;5.50;;;18.30;1.00;;;;;;6326757;28;20241;-56
2022/06/28 06:33:18;;;;;;;5.53;5.33;;;18.40;1.00;;;;;;6327780;28;20249;-55
2022/06/28 06:36:21;;;;;;;5.27;5.07;;;18.50;1.00;;;;;;6321498;28;20284;-56
2022/06/28 06:39:24;;;;;;;5.40;5.00;;;18.60;1.00;;;;;;6314286;28;20278;-56
2022/06/28 06:42:28;;;;;;;5.30;5.10;;;18.80;1.00;;;;;;6327918;28;20652;-56
2022/06/28 06:45:31;;;;;;;5.27;5.07;;;18.90;1.00;;;;;;6334363;28;20576;-56
2022/06/28 06:48:36;;;;;;;5.40;5.20;;;18.90;1.00;;;;;;6331840;28;20243;-55
2022/06/28 06:51:38;;;;;;;5.17;4.97;;;19.00;1.00;;;;;;6308564;28;20312;-55
2022/06/28 06:54:41;;;;;;;4.83;4.73;;;19.10;1.00;;;;;;6320932;28;20336;-55
2022/06/28 06:57:45;;;;;;;4.97;4.77;;;19.20;1.00;;;;;;6329888;28;20755;-56
2022/06/28 07:00:49;;;;;;;4.30;4.10;;;19.20;1.00;;;;;;6322403;28;20467;-55
2022/06/28 07:03:53;;;;;;;4.03;3.93;;;19.50;1.00;;;;;;6318553;28;20712;-56
2022/06/28 07:07:00;;;;;;;4.07;3.97;;;19.80;1.00;;;;;;6325634;28;20233;-56
2022/06/28 07:10:04;;;;;;;4.50;4.30;;;20.20;1.00;;;;;;6325388;27;20248;-59
2022/06/28 07:13:07;;;;;;;4.17;3.97;;;20.50;1.00;;;;;;6330159;28;20281;-55
2022/06/28 07:16:10;;;;;;;4.07;3.80;;;20.70;1.00;;;;;;6345845;27;20387;-56
2022/06/28 07:19:14;;;;;;;3.53;3.53;;;20.90;1.00;;;;;;6347250;27;20670;-55
2022/06/28 07:22:17;;;;;;;3.70;3.50;;;20.80;1.00;;;;;;6320623;28;20255;-54
2022/06/28 07:25:20;;;;;;;4.13;3.67;;;20.60;1.00;;;;;;6322319;27;20308;-56
2022/06/28 07:28:23;;;;;;;4.10;4.00;;;20.60;1.00;;;;;;6332082;28;20889;-56
2022/06/28 07:31:27;;;;;;;3.60;3.50;;;20.60;1.00;;;;;;6324631;28;20228;-55
2022/06/28 07:34:32;;;;;;;3.10;3.00;;;20.70;1.00;;;;;;6335327;27;20296;-55
2022/06/28 07:37:36;;;;;;;3.50;3.40;;;20.80;1.00;;;;;;6330657;27;20647;-55
2022/06/28 07:40:39;;;;;;;3.20;3.20;;;20.90;1.00;;;;;;6327903;28;20307;-55
2022/06/28 07:43:42;;;;;;;3.33;3.23;;;20.90;1.00;;;;;;6333645;28;20237;-56
2022/06/28 07:46:48;;;;;;;3.23;3.07;;;20.90;1.00;;;;;;6329439;27;20514;-56
2022/06/28 07:53:12;;;;;;;2.90;2.90;;;20.80;1.00;;;;;;6328575;28;20236;-55
2022/06/28 07:56:17;;;;;;;3.47;3.27;;;21.20;1.00;;;;;;6328232;27;20239;-56
2022/06/28 07:59:20;;;;;;;3.00;2.90;;;21.50;1.00;;;;;;6331861;28;20468;-55
2022/06/28 08:02:23;;;;;;;2.90;2.70;;;21.80;1.00;;;;;;6325696;27;20394;-55
2022/06/28 08:05:27;;;;;;;2.73;2.67;;;22.20;1.00;;;;;;6321924;27;20255;-55
2022/06/28 08:08:30;;;;;;;2.70;2.70;;;22.00;1.00;;;;;;6317325;27;20235;-54
2022/06/28 08:11:33;;;;;;;2.93;2.87;;;22.00;1.00;;;;;;6329080;27;20441;-52
2022/06/28 08:14:36;;;;;;;2.37;2.37;;;22.10;1.00;;;;;;6322091;28;20243;-54
2022/06/28 08:17:41;;;;;;;2.50;2.50;;;22.30;1.00;;;;;;6319295;27;20240;-55
2022/06/28 08:20:45;;;;;;;2.30;2.30;;;22.30;1.00;;;;;;6326878;27;20411;-54
2022/06/28 08:23:48;;;;;;;2.53;2.43;;;22.30;1.00;;;;;;6330177;28;20248;-56
2022/06/28 08:26:52;;;;;;;2.50;2.40;;;22.30;1.00;;;;;;6324082;27;20600;-54
2022/06/28 08:29:59;;;;;;;2.50;2.50;;;22.50;1.00;;;;;;6319824;28;20235;-55
2022/06/28 08:33:02;;;;;;;5.40;2.80;;;22.70;1.00;;;;;;6310459;28;20338;-54
2022/06/28 08:36:07;;;;;;;2.43;2.40;;;22.60;1.00;;;;;;6315908;28;20260;-57
2022/06/28 08:39:09;;;;;;;2.57;2.53;;;22.60;1.00;;;;;;6314213;28;20702;-56
2022/06/28 08:42:15;;;;;;;2.50;2.40;;;22.80;1.00;;;;;;6304625;28;20685;-55
2022/06/28 08:45:18;;;;;;;5.03;2.40;;;23.10;1.00;;;;;;6327103;28;20236;-55
2022/06/28 08:48:24;;;;;;;2.40;2.30;;;23.20;1.00;;;;;;6317718;28;20246;-59
2022/06/28 08:51:31;;;;;;;2.53;2.43;;;23.30;1.00;;;;;;6317578;27;20244;-55
2022/06/28 08:54:35;;;;;;;2.40;2.40;;;23.40;1.00;;;;;;6298113;28;20237;-56
2022/06/28 08:57:45;;;;;;;2.30;2.30;;;23.40;1.00;;;;;;6325738;28;20736;-56
2022/06/28 09:00:48;;;;;;;3.30;2.77;;;23.50;1.00;;;;;;6326297;28;20238;-56
2022/06/28 09:03:53;;;;;;;2.30;2.20;;;23.30;1.00;;;;;;6324715;28;20294;-55
2022/06/28 09:07:01;;;;;;;2.07;2.07;;;23.20;1.00;;;;;;6325457;28;20232;-56
2022/06/28 09:10:05;;;;;;;2.30;2.27;;;23.50;1.00;;;;;;6328984;28;20327;-56
2022/06/28 09:13:10;;;;;;;2.17;2.07;;;23.60;1.00;;;;;;6330702;28;20261;-56
2022/06/28 09:16:13;;;;;;;2.33;2.23;;;23.80;1.00;;;;;;6331077;28;20452;-55
2022/06/28 09:19:17;;;;;;;2.40;2.30;;;23.90;1.00;;;;;;6330706;28;20251;-55
2022/06/28 09:22:37;;;;;;;3.80;3.53;;;24.00;1.00;;;;;;6323709;28;20354;-55
2022/06/28 09:25:40;;;;;;;2.27;2.10;;;24.30;1.00;;;;;;6326386;28;20239;-57
2022/06/28 09:28:45;;;;;;;2.33;2.23;;;24.40;1.00;;;;;;6328821;28;20661;-55
2022/06/28 09:31:48;;;;;;;1.90;1.90;;;24.60;1.00;;;;;;6318889;28;20240;-55
2022/06/28 09:34:55;;;;;;;1.90;1.90;;;24.50;1.00;;;;;;6330768;28;21117;-55
2022/06/28 09:37:59;;;;;;;2.03;2.03;;;24.20;1.00;;;;;;6327747;28;20615;-55
2022/06/28 09:41:02;;;;;;;2.20;2.20;;;23.80;1.00;;;;;;6327662;28;20256;-56
2022/06/28 09:44:07;;;;;;;2.00;2.00;;;23.70;1.00;;;;;;6328559;28;20228;-55
2022/06/28 09:47:13;;;;;;;2.10;2.00;;;23.90;1.00;;;;;;6307800;28;20236;-53
2022/06/28 09:50:23;;;;;;;1.70;1.70;;;24.30;1.00;;;;;;6323166;28;20239;-56
2022/06/28 09:53:30;;;;;;;1.70;1.70;;;24.60;1.00;;;;;;6319793;28;20296;-56
2022/06/28 09:56:38;;;;;;;1.83;1.83;;;24.70;1.00;;;;;;6331238;28;20250;-56
2022/06/28 09:59:41;;;;;;;2.07;2.00;;;24.40;1.00;;;;;;6329583;28;20785;-55
2022/06/28 10:02:45;;;;;;;3.53;2.00;;;24.30;1.00;;;;;;6318143;28;20850;-56
2022/06/28 10:05:48;;;;;;;2.00;2.00;;;24.00;1.00;;;;;;6334194;28;20228;-56
2022/06/28 10:08:52;;;;;;;2.10;1.90;;;24.10;1.00;;;;;;6335278;28;20305;-56
2022/06/28 10:15:19;;;;;;;1.80;1.80;;;24.50;1.00;;;;;;6322326;28;20323;-56
2022/06/28 10:18:23;;;;;;;1.87;1.87;;;24.30;1.00;;;;;;6312452;28;20278;-55
2022/06/28 10:21:46;;;;;;;1.97;1.83;;;24.30;1.00;;;;;;6320609;28;20306;-56
2022/06/28 10:24:55;;;;;;;1.73;1.73;;;24.30;1.00;;;;;;6316626;28;20273;-55
2022/06/28 10:27:58;;;;;;;1.87;1.87;;;24.20;1.00;;;;;;6325759;28;20618;-55
2022/06/28 10:31:45;;;;;;;1.70;1.63;;;24.00;1.00;;;;;;6322931;28;20750;-54
2022/06/28 10:34:52;;;;;;;1.90;1.90;;;23.90;1.00;;;;;;6224867;28;20368;-55
2022/06/28 10:38:17;;;;;;;2.00;1.93;;;23.90;1.00;;;;;;6331007;27;20227;-55
2022/06/28 10:41:35;;;;;;;1.87;1.87;;;24.10;1.00;;;;;;6331478;28;20812;-56
2022/06/28 10:44:47;;;;;;;1.70;1.70;;;24.10;1.00;;;;;;6332522;28;20312;-55
2022/06/28 10:48:11;;;;;;;1.93;1.83;;;24.20;1.00;;;;;;6329781;28;20231;-56
2022/06/28 10:51:14;;;;;;;2.13;2.03;;;24.80;1.00;;;;;;6320952;28;20233;-54
2022/06/28 10:54:17;;;;;;;2.27;2.20;;;25.00;1.00;;;;;;6317547;27;20677;-55
2022/06/28 10:57:23;;;;;;;1.73;1.73;;;25.10;1.00;;;;;;6310245;28;20717;-55
2022/06/28 11:00:32;;;;;;;2.10;2.00;;;25.10;1.00;;;;;;6319425;28;20232;-56
2022/06/28 11:04:08;;;;;;;1.77;1.77;;;25.20;1.00;;;;;;6329021;28;20513;-56
2022/06/28 11:07:23;;;;;;;2.20;2.20;;;25.50;1.00;;;;;;6314238;28;20319;-55
2022/06/28 11:10:27;;;;;;;3.67;1.70;;;25.40;1.00;;;;;;6316342;28;20393;-55
2022/06/28 11:13:32;;;;;;;3.03;1.90;;;25.50;1.00;;;;;;6319147;28;20345;-56
2022/06/28 11:16:46;;;;;;;2.93;1.90;;;25.50;1.00;;;;;;6318527;28;20378;-56
2022/06/28 11:19:54;;;;;;;2.33;2.20;;;25.60;1.00;;;;;;6313958;28;20545;-56
2022/06/28 11:22:57;;;;;;;1.90;1.80;;;25.50;1.00;;;;;;6319935;28;20724;-56
2022/06/28 11:29:33;;;;;;;2.10;1.90;;;25.80;1.00;;;;;;6302749;28;20327;-62
2022/06/28 11:32:37;;;;;;;1.80;1.70;;;25.90;1.00;;;;;;6317717;28;20245;-55
2022/06/28 11:35:40;;;;;;;1.60;1.60;;;25.60;1.00;;;;;;6315599;27;20350;-55
2022/06/28 11:38:44;;;;;;;2.00;2.00;;;25.60;1.00;;;;;;6309440;28;20891;-55
2022/06/28 11:41:48;;;;;;;1.73;1.73;;;25.70;1.00;;;;;;6314637;28;20240;-55
2022/06/28 11:44:53;;;;;;;1.60;1.60;;;25.90;1.00;;;;;;6322257;27;20232;-56
2022/06/28 11:47:57;;;;;;;1.87;1.70;;;26.00;1.00;;;;;;6320621;28;20321;-56
2022/06/28 11:51:01;;;;;;;1.70;1.70;;;26.40;1.00;;;;;;6316390;28;20357;-55
2022/06/28 11:54:10;;;;;;;1.77;1.67;;;26.30;1.00;;;;;;6310207;28;20247;-55
2022/06/28 11:57:14;;;;;;;1.70;1.70;;;26.20;1.00;;;;;;6311684;28;20339;-55
2022/06/28 12:00:23;;;;;;;1.87;1.70;;;26.30;1.00;;;;;;6311569;28;20627;-55
2022/06/28 12:03:26;;;;;;;1.90;1.90;;;26.20;1.00;;;;;;6327405;28;20244;-55
2022/06/28 12:06:33;;;;;;;1.47;1.43;;;26.00;1.00;;;;;;6310430;28;20259;-56
2022/06/28 12:09:44;;;;;;;1.53;1.43;;;25.90;1.00;;;;;;6307057;28;20240;-55
2022/06/28 12:12:47;;;;;;;1.87;1.80;;;25.80;1.00;;;;;;6311560;28;20299;-55
2022/06/28 12:15:52;;;;;;;2.10;2.00;;;25.90;1.00;;;;;;6315463;28;20820;-56
2022/06/28 12:18:56;;;;;;;1.80;1.70;;;25.90;1.00;;;;;;6309424;28;20587;-55
2022/06/28 12:22:00;;;;;;;1.77;1.67;;;25.90;1.00;;;;;;6320669;28;20489;-54
2022/06/28 12:25:09;;;;;;;1.83;1.50;;;25.80;1.00;;;;;;6314639;28;20233;-55
2022/06/28 12:28:12;;;;;;;1.93;1.83;;;25.80;1.00;;;;;;6316085;28;20744;-54
2022/06/28 12:31:16;;;;;;;2.60;1.70;;;25.90;1.00;;;;;;6314980;28;20278;-56
2022/06/28 12:34:19;;;;;;;1.60;1.60;;;26.20;1.00;;;;;;6308706;28;20231;-57
2022/06/28 12:37:23;;;;;;;2.20;2.10;;;26.40;1.00;;;;;;6301919;28;20334;-55
2022/06/28 12:40:26;;;;;;;2.00;1.90;;;26.70;1.00;;;;;;6312098;28;20277;-54
2022/06/28 12:43:29;;;;;;;2.00;1.90;;;26.80;1.00;;;;;;6322371;28;20260;-55
2022/06/28 12:46:36;;;;;;;1.90;1.80;;;26.90;1.00;;;;;;6317467;28;20352;-55
2022/06/28 12:49:39;;;;;;;1.80;1.80;;;27.00;1.00;;;;;;6319956;28;20272;-54
2022/06/28 12:52:44;;;;;;;2.07;2.00;;;27.00;1.00;;;;;;6313592;28;20581;-54
2022/06/28 12:55:47;;;;;;;2.00;1.80;;;27.10;1.00;;;;;;6310870;28;20239;-55
2022/06/28 12:58:51;;;;;;;2.27;2.00;;;27.10;1.00;;;;;;6315637;28;20296;-55
2022/06/28 13:01:55;;;;;;;2.10;2.00;;;27.30;1.00;;;;;;6319140;28;20232;-54
2022/06/28 13:04:58;;;;;;;1.90;1.90;;;27.40;1.00;;;;;;6310932;28;20361;-54
2022/06/28 13:08:03;;;;;;;1.77;1.77;;;27.40;1.00;;;;;;6303560;28;20237;-53
2022/06/28 13:11:06;;;;;;;2.17;2.00;;;27.00;1.00;;;;;;6318993;27;20241;-55
2022/06/28 13:14:09;;;;;;;1.80;1.80;;;26.90;1.00;;;;;;6314221;28;20290;-54
2022/06/28 13:17:14;;;;;;;1.90;1.90;;;26.90;1.00;;;;;;6305890;28;20229;-54
2022/06/28 13:20:18;;;;;;;2.00;1.97;;;27.00;1.00;;;;;;6312380;28;20524;-55
2022/06/28 13:23:32;;;;;;;1.70;1.70;;;26.90;1.00;;;;;;6305383;28;20437;-55
2022/06/28 13:26:35;;;;;;;2.17;2.17;;;27.00;1.00;;;;;;6318732;28;20381;-55
2022/06/28 13:29:39;;;;;;;2.10;1.90;;;26.80;1.00;;;;;;6306136;28;20296;-54
2022/06/28 13:32:44;;;;;;;6.83;1.93;;;26.70;1.00;;;;;;6311679;28;20276;-55
2022/06/28 13:35:48;;;;;;;1.90;1.90;;;26.70;1.00;;;;;;6292381;28;20568;-49
2022/06/28 13:38:51;;;;;;;1.73;1.63;;;26.90;1.00;;;;;;6313252;28;20458;-54
2022/06/28 13:42:05;;;;;;;1.90;1.90;;;27.10;1.00;;;;;;6319099;28;20330;-53
2022/06/28 13:45:09;;;;;;;2.20;2.10;;;27.20;1.00;;;;;;6312679;28;20686;-54
2022/06/28 13:48:14;;;;;;;2.20;2.00;;;27.30;1.00;;;;;;6326522;28;20236;-55
2022/06/28 13:51:17;;;;;;;2.10;1.80;;;27.20;1.00;;;;;;6310883;28;20239;-53
2022/06/28 13:54:20;;;;;;;1.80;1.70;;;27.10;1.00;;;;;;6316575;28;20233;-54
2022/06/28 13:57:31;;;;;;;2.20;2.20;;;27.00;1.00;;;;;;6307540;28;20236;-55
2022/06/28 14:00:34;;;;;;;2.00;2.00;;;27.10;1.00;;;;;;6312220;28;20270;-52
2022/06/28 14:03:39;;;;;;;1.97;1.97;;;27.00;1.00;;;;;;6318057;28;20581;-54
2022/06/28 14:06:44;;;;;;;3.13;1.80;;;27.20;1.00;;;;;;6307208;28;20973;-55
2022/06/28 14:09:48;;;;;;;1.70;1.70;;;27.40;1.00;;;;;;6326086;28;20632;-55
2022/06/28 14:12:51;;;;;;;1.70;1.70;;;27.60;1.00;;;;;;6320218;28;20757;-54
2022/06/28 14:15:54;;;;;;;1.70;1.70;;;27.90;1.00;;;;;;6322409;28;20228;-54
2022/06/28 14:19:02;;;;;;;2.77;1.70;;;28.10;1.00;;;;;;6313086;28;20229;-55
2022/06/28 14:22:05;;;;;;;1.80;1.70;;;28.10;1.00;;;;;;6313821;28;20537;-54
2022/06/28 14:25:09;;;;;;;2.10;1.57;;;28.10;1.00;;;;;;6316958;28;20304;-55
2022/06/28 14:28:12;;;;;;;1.80;1.80;;;28.20;1.00;;;;;;6317380;28;20228;-55
2022/06/28 14:31:15;;;;;;;1.73;1.73;;;28.20;1.00;;;;;;6314516;28;20608;-55
2022/06/28 14:34:39;;;;;;;1.80;1.70;;;28.00;1.00;;;;;;6319636;28;20243;-55
2022/06/28 14:37:42;;;;;;;1.73;1.73;;;28.10;1.00;;;;;;6308700;27;20237;-55
2022/06/28 14:40:45;;;;;;;1.97;1.87;;;28.30;1.00;;;;;;6311219;28;20770;-55
2022/06/28 14:43:48;;;;;;;1.70;1.60;;;28.30;1.00;;;;;;6325020;28;20232;-54
2022/06/28 14:46:52;;;;;;;3.63;1.97;;;28.40;1.00;;;;;;6313504;28;20626;-55
2022/06/28 14:49:56;;;;;;;1.50;1.50;;;28.20;1.00;;;;;;6323439;28;20380;-56
2022/06/28 14:52:59;;;;;;;1.77;1.67;;;27.90;1.00;;;;;;6318004;28;20262;-55
2022/06/28 14:56:02;;;;;;;1.93;1.83;;;27.70;1.00;;;;;;6317775;27;20246;-55
2022/06/28 14:59:05;;;;;;;1.50;1.40;;;27.60;1.00;;;;;;6321412;28;20331;-54
2022/06/28 15:02:08;;;;;;;1.90;1.90;;;27.50;1.00;;;;;;6323886;28;20232;-60
2022/06/28 15:05:12;;;;;;;1.50;1.40;;;27.40;1.00;;;;;;6319156;28;20666;-56
2022/06/28 15:08:15;;;;;;;1.60;1.60;;;27.30;1.00;;;;;;6309488;28;20240;-56
2022/06/28 15:11:18;;;;;;;1.87;1.70;;;27.20;1.00;;;;;;6318126;28;20954;-53
2022/06/28 15:14:33;;;;;;;2.30;2.20;;;27.30;1.00;;;;;;6319267;28;20381;-53
2022/06/28 15:17:37;;;;;;;2.60;2.37;;;27.20;1.00;;;;;;6305906;28;20294;-55
2022/06/28 15:20:42;;;;;;;2.10;2.10;;;27.20;1.00;;;;;;6309329;28;20266;-54
2022/06/28 15:33:47;;;;;;;2.20;2.17;;;26.60;1.00;;;;;;6322473;28;20349;-55
2022/06/28 15:36:52;;;;;;;2.10;2.00;;;26.50;1.00;;;;;;6315078;28;20481;-56
2022/06/28 15:39:55;;;;;;;2.20;2.03;;;26.30;1.00;;;;;;6312583;28;20392;-55
2022/06/28 15:42:57;;;;;;;2.37;1.90;;;26.20;1.00;;;;;;6311477;28;20508;-56
2022/06/28 15:46:01;;;;;;;1.93;1.93;;;26.20;1.00;;;;;;6312744;28;20676;-55
2022/06/28 15:49:04;;;;;;;2.10;1.90;;;26.10;1.00;;;;;;6308930;27;20232;-54
2022/06/28 15:52:09;;;;;;;1.40;1.40;;;26.10;1.00;;;;;;6313620;27;20587;-55
2022/06/28 15:55:11;;;;;;;2.13;1.93;;;26.10;1.00;;;;;;6315341;28;20612;-55
2022/06/28 15:58:16;;;;;;;1.90;1.90;;;26.00;1.00;;;;;;6308176;28;20231;-55
2022/06/28 16:01:20;;;;;;;2.30;2.20;;;26.00;1.00;;;;;;6305856;28;20775;-54
2022/06/28 16:04:23;;;;;;;1.80;1.80;;;26.00;1.00;;;;;;6284038;27;20281;-54
2022/06/28 16:07:32;;;;;;;2.00;2.00;;;25.90;1.00;;;;;;6317635;27;20239;-55
2022/06/28 16:10:35;;;;;;;2.07;1.97;;;26.00;1.00;;;;;;6305485;28;20292;-53
2022/06/28 16:13:38;;;;;;;1.67;1.57;;;26.20;1.00;;;;;;6322852;28;20516;-54
2022/06/28 16:16:42;;;;;;;2.20;2.00;;;26.40;1.00;;;;;;6318855;28;20240;-56
2022/06/28 16:19:46;;;;;;;1.83;1.80;;;26.70;1.00;;;;;;6313721;28;20440;-54
2022/06/28 16:23:11;;;;;;;2.00;2.00;;;26.70;1.00;;;;;;6309968;28;20241;-55
2022/06/28 16:26:13;;;;;;;1.87;1.87;;;26.60;1.00;;;;;;6316090;28;20236;-55
2022/06/28 16:29:16;;;;;;;1.90;1.90;;;26.60;1.00;;;;;;6320204;28;20243;-55
2022/06/28 16:32:19;;;;;;;2.03;1.93;;;26.60;1.00;;;;;;6315679;28;20594;-54
2022/06/28 16:35:23;;;;;;;1.93;1.83;;;26.60;1.00;;;;;;6315704;28;20240;-57
2022/06/28 16:38:27;;;;;;;1.90;1.80;;;26.60;1.00;;;;;;6307485;28;20236;-53
2022/06/28 16:41:30;;;;;;;1.93;1.93;;;26.50;1.00;;;;;;6315157;28;20814;-53